Time;durP1;ratioP1;P1;durP2;ratioP2;P2;SDS_P1;SDS_P2;PMS_P1;PMS_P2;Temp;Humidity;BMP_temperature;BMP_pressure;BME280_temperature;BME280_humidity;BME280_pressure;Samples;Min_cycle;Max_cycle;Signal;HPM_P1;HPM_P2
2021/09/13 00:00:48;;;;;;;12.75;5.35;;;;;;;16.70;63.72;100703.23;1744140;82;20932;-67
2021/09/13 00:03:15;;;;;;;20.57;5.85;;;;;;;16.62;64.18;100700.87;1744204;82;20884;-68
2021/09/13 00:05:44;;;;;;;12.90;6.70;;;;;;;16.53;64.55;100699.83;1744290;82;20920;-67
2021/09/13 00:08:13;;;;;;;13.35;6.65;;;;;;;16.46;64.96;100707.94;1744185;82;20921;-67
2021/09/13 00:10:43;;;;;;;14.38;6.15;;;;;;;16.31;65.45;100710.04;1744644;82;20979;-66
2021/09/13 00:13:11;;;;;;;11.08;5.53;;;;;;;16.31;65.45;100710.04;1744347;82;21385;-67
2021/09/13 00:15:39;;;;;;;13.53;6.22;;;;;;;16.25;65.75;100703.92;1744327;82;20921;-66
2021/09/13 00:18:08;;;;;;;12.63;5.85;;;;;;;16.20;66.36;100702.98;1744326;82;21148;-66
2021/09/13 00:20:38;;;;;;;10.60;5.80;;;;;;;16.20;66.36;100702.98;1740895;82;20921;-67
2021/09/13 00:23:05;;;;;;;13.53;6.17;;;;;;;16.13;66.37;100697.36;1736059;82;20917;-68
2021/09/13 00:25:34;;;;;;;11.60;6.35;;;;;;;16.13;66.37;100697.36;1736059;82;21407;-69
2021/09/13 00:28:01;;;;;;;16.73;6.90;;;;;;;16.10;66.53;100704.23;1736177;82;20933;-68
2021/09/13 00:30:30;;;;;;;14.25;7.53;;;;;;;15.99;66.69;100698.98;1736153;82;21073;-66
2021/09/13 00:32:57;;;;;;;20.68;7.55;;;;;;;15.92;66.83;100703.09;1736089;82;20913;-67
2021/09/13 00:35:25;;;;;;;14.20;7.10;;;;;;;15.84;66.91;100706.34;1736290;82;20941;-68
2021/09/13 00:37:53;;;;;;;15.15;7.50;;;;;;;15.84;66.91;100706.34;1736132;82;20933;-68
2021/09/13 00:40:20;;;;;;;20.08;7.42;;;;;;;15.73;67.46;100701.92;1736030;82;21273;-67
2021/09/13 00:42:48;;;;;;;20.12;6.83;;;;;;;15.66;67.83;100704.67;1736019;81;21134;-68
2021/09/13 00:45:17;;;;;;;18.42;8.85;;;;;;;15.60;68.11;100703.83;1736144;82;20841;-68
2021/09/13 00:47:43;;;;;;;16.25;7.40;;;;;;;15.54;68.32;100705.66;1736487;81;20933;-67
2021/09/13 00:50:10;;;;;;;22.20;8.00;;;;;;;15.42;69.01;100706.14;1736091;82;21347;-67
2021/09/13 00:52:37;;;;;;;16.00;7.47;;;;;;;15.42;69.01;100706.14;1736511;82;21410;-67
2021/09/13 00:55:07;;;;;;;20.30;8.10;;;;;;;15.38;68.89;100702.05;1736128;82;21109;-67
2021/09/13 00:57:34;;;;;;;14.30;6.92;;;;;;;15.32;68.87;100704.71;1736410;81;20964;-67
2021/09/13 01:00:02;;;;;;;11.97;6.97;;;;;;;15.27;69.14;100707.34;1739602;82;21386;-67
2021/09/13 01:02:31;;;;;;;18.32;8.28;;;;;;;15.21;69.55;100702.07;1736044;82;20991;-67
2021/09/13 01:04:59;;;;;;;13.38;7.60;;;;;;;15.16;69.63;100701.56;1736079;82;20842;-67
2021/09/13 01:07:30;;;;;;;16.12;6.78;;;;;;;15.15;69.82;100704.35;1736228;81;20925;-67
2021/09/13 01:09:56;;;;;;;21.85;6.65;;;;;;;15.11;69.79;100701.09;1735955;81;20850;-66
2021/09/13 01:12:23;;;;;;;13.25;6.30;;;;;;;15.12;69.56;100702.80;1736168;82;20929;-66
2021/09/13 01:14:50;;;;;;;15.13;6.85;;;;;;;15.18;69.47;100708.06;1736274;82;21475;-68
2021/09/13 01:17:17;;;;;;;12.95;7.00;;;;;;;15.25;70.05;100703.52;1736163;82;20976;-67
2021/09/13 01:19:44;;;;;;;9.08;6.25;;;;;;;15.25;70.05;100703.52;1736136;82;21145;-67
2021/09/13 01:22:13;;;;;;;14.95;7.30;;;;;;;15.30;69.74;100707.13;1736017;82;20917;-69
2021/09/13 01:24:43;;;;;;;12.93;7.10;;;;;;;15.32;69.55;100703.39;1735502;82;20877;-68
2021/09/13 01:27:10;;;;;;;16.57;7.37;;;;;;;15.29;69.00;100701.45;1736090;82;20841;-67
2021/09/13 01:29:38;;;;;;;9.63;6.40;;;;;;;15.29;69.00;100701.45;1736015;81;20920;-67
2021/09/13 01:32:05;;;;;;;13.10;8.05;;;;;;;15.23;68.97;100694.87;1736007;82;21505;-67
2021/09/13 01:34:34;;;;;;;18.67;8.38;;;;;;;15.18;68.88;100706.74;1734717;82;20980;-67
2021/09/13 01:37:01;;;;;;;13.68;6.65;;;;;;;15.09;68.92;100710.45;1736012;82;20999;-67
2021/09/13 01:39:30;;;;;;;15.03;6.95;;;;;;;15.01;69.17;100699.66;1736100;82;20917;-68
2021/09/13 01:41:58;;;;;;;16.02;7.53;;;;;;;14.86;69.36;100706.95;1736012;81;20881;-68
2021/09/13 01:44:27;;;;;;;14.60;7.62;;;;;;;14.86;69.36;100706.95;1736076;82;21215;-67
2021/09/13 01:46:55;;;;;;;12.40;7.05;;;;;;;14.77;70.05;100698.42;1736098;82;20889;-68
2021/09/13 01:49:24;;;;;;;15.68;7.05;;;;;;;14.74;70.52;100700.44;1735996;82;20905;-68
2021/09/13 01:51:55;;;;;;;14.10;7.45;;;;;;;14.68;70.83;100702.60;1735961;81;20921;-67
2021/09/13 01:54:21;;;;;;;12.88;6.12;;;;;;;14.65;71.04;100700.20;1736213;82;21366;-67
2021/09/13 01:56:50;;;;;;;15.00;7.37;;;;;;;14.63;71.17;100699.93;1736010;82;21165;-67
2021/09/13 01:59:18;;;;;;;15.15;6.95;;;;;;;14.62;71.19;100696.95;1734321;82;20913;-67
2021/09/13 02:01:45;;;;;;;13.20;6.85;;;;;;;14.62;71.28;100698.27;1736036;82;20921;-67
2021/09/13 02:04:13;;;;;;;13.50;6.62;;;;;;;14.61;71.12;100699.23;1735990;82;20885;-68
2021/09/13 02:06:42;;;;;;;16.27;6.90;;;;;;;14.61;71.12;100699.23;1735949;81;21442;-67
2021/09/13 02:09:09;;;;;;;10.72;6.50;;;;;;;14.56;70.77;100697.41;1736202;82;21130;-67
2021/09/13 02:11:36;;;;;;;20.00;7.28;;;;;;;14.56;70.77;100697.41;1736531;82;20861;-68
2021/09/13 02:14:03;;;;;;;16.02;6.72;;;;;;;14.50;71.08;100691.61;1736247;81;21475;-67
2021/09/13 02:16:31;;;;;;;18.23;6.67;;;;;;;14.47;71.18;100689.21;1736100;82;20968;-67
2021/09/13 02:19:00;;;;;;;18.65;6.42;;;;;;;14.42;71.33;100691.33;1736188;82;20984;-68
2021/09/13 02:21:28;;;;;;;15.72;6.83;;;;;;;14.38;71.50;100683.77;1740049;81;21366;-68
2021/09/13 02:23:57;;;;;;;17.87;7.10;;;;;;;14.35;71.82;100690.60;1744617;82;21334;-67
2021/09/13 02:26:23;;;;;;;21.27;8.23;;;;;;;14.34;71.83;100688.91;1744664;82;20956;-68
2021/09/13 02:28:52;;;;;;;15.90;7.00;;;;;;;14.32;72.06;100691.67;1744317;82;20960;-67
2021/09/13 02:31:19;;;;;;;19.17;7.17;;;;;;;14.32;72.01;100691.67;1744358;82;21386;-67
2021/09/13 02:33:48;;;;;;;22.15;8.70;;;;;;;14.32;71.81;100693.00;1744326;82;20877;-68
2021/09/13 02:36:16;;;;;;;14.00;6.78;;;;;;;14.32;71.84;100696.95;1744249;82;20928;-68
2021/09/13 02:38:43;;;;;;;15.20;7.72;;;;;;;14.28;71.97;100693.69;1744363;82;20905;-68
2021/09/13 02:41:11;;;;;;;22.15;7.00;;;;;;;14.25;72.03;100687.34;1744545;82;21011;-69
2021/09/13 02:43:38;;;;;;;12.88;6.87;;;;;;;14.22;72.19;100684.91;1744294;81;20980;-67
2021/09/13 02:46:05;;;;;;;11.60;6.50;;;;;;;14.21;72.21;100684.55;1744355;82;21127;-67
2021/09/13 02:48:33;;;;;;;14.18;6.62;;;;;;;14.22;72.07;100690.67;1744297;82;20928;-67
2021/09/13 02:51:01;;;;;;;11.95;7.15;;;;;;;14.20;71.86;100691.25;1744234;82;20885;-68
2021/09/13 02:53:29;;;;;;;11.03;6.33;;;;;;;14.16;71.82;100692.44;1744335;82;20909;-68
2021/09/13 02:55:56;;;;;;;15.72;6.20;;;;;;;14.13;72.20;100693.50;1744373;82;20853;-67
2021/09/13 02:58:23;;;;;;;21.37;7.90;;;;;;;14.13;72.20;100693.50;1744512;82;21135;-67
2021/09/13 03:00:52;;;;;;;15.30;6.72;;;;;;;14.07;72.13;100703.17;1744196;82;20944;-67
2021/09/13 03:03:19;;;;;;;9.80;6.65;;;;;;;13.98;72.48;100699.90;1744345;81;20845;-68
2021/09/13 03:05:45;;;;;;;18.75;6.87;;;;;;;13.94;73.15;100703.70;1744414;81;20889;-68
2021/09/13 03:08:14;;;;;;;24.95;8.58;;;;;;;13.92;73.85;100702.98;1743908;82;20968;-67
2021/09/13 03:10:41;;;;;;;16.45;7.05;;;;;;;13.96;74.09;100705.77;1744345;81;21515;-67
2021/09/13 03:13:08;;;;;;;14.63;6.83;;;;;;;13.96;74.13;100702.67;1744290;82;20924;-68
2021/09/13 03:15:37;;;;;;;18.42;6.60;;;;;;;13.97;74.20;100713.56;1744197;81;20849;-70
2021/09/13 03:18:07;;;;;;;22.27;7.12;;;;;;;13.98;74.20;100712.59;1744318;82;20939;-68
2021/09/13 03:20:35;;;;;;;14.43;7.00;;;;;;;14.00;74.12;100711.18;1714860;82;20921;-67
2021/09/13 03:23:01;;;;;;;22.20;8.55;;;;;;;14.02;73.92;100712.75;1757716;81;21801;-67
2021/09/13 03:25:29;;;;;;;21.52;6.87;;;;;;;14.05;73.66;100712.55;1757818;80;20932;-68
2021/09/13 03:27:58;;;;;;;22.17;7.58;;;;;;;14.09;73.49;100712.69;1758295;81;20920;-68
2021/09/13 03:30:26;;;;;;;19.02;8.05;;;;;;;14.07;73.39;100712.41;1757853;81;21022;-68
2021/09/13 03:32:54;;;;;;;16.93;6.50;;;;;;;14.07;73.30;100708.00;1757874;80;21476;-68
2021/09/13 03:35:22;;;;;;;16.52;8.55;;;;;;;14.10;73.26;100704.29;1757931;81;21971;-68
2021/09/13 03:37:49;;;;;;;18.10;8.88;;;;;;;14.13;73.06;100713.28;1758146;81;20888;-68
2021/09/13 03:40:16;;;;;;;21.30;8.35;;;;;;;14.14;72.88;100718.94;1757817;81;20873;-67
2021/09/13 03:42:43;;;;;;;31.62;9.48;;;;;;;14.14;72.73;100714.12;1758113;81;20979;-69
2021/09/13 03:45:10;;;;;;;20.35;9.28;;;;;;;14.14;72.65;100715.44;1757831;80;20887;-68
2021/09/13 03:47:54;;;;;;;23.95;10.55;;;;;;;14.14;72.64;100712.80;1756029;81;21631;-67
2021/09/13 03:50:22;;;;;;;24.32;9.45;;;;;;;14.15;72.75;100707.91;1757868;81;20967;-67
2021/09/13 03:52:51;;;;;;;24.07;11.68;;;;;;;14.16;72.87;100709.13;1758319;81;21517;-68
2021/09/13 03:55:18;;;;;;;31.82;12.82;;;;;;;14.19;73.00;100714.64;1757882;81;20911;-69
2021/09/13 03:57:45;;;;;;;33.02;12.55;;;;;;;14.20;73.12;100717.14;1757932;81;20975;-67
2021/09/13 04:00:12;;;;;;;31.27;12.70;;;;;;;14.23;73.26;100718.74;1757774;81;21131;-68
2021/09/13 04:02:47;;;;;;;32.00;12.37;;;;;;;14.26;73.41;100711.42;1758203;81;20916;-68
2021/09/13 04:05:20;;;;;;;32.08;12.60;;;;;;;14.32;73.58;100722.02;1757960;81;20924;-68
2021/09/13 04:10:45;;;;;;;25.17;11.40;;;;;;;14.51;73.75;100718.34;1755977;80;21448;-68
2021/09/13 04:13:03;;;;;;;46.55;13.45;;;;;;;14.61;73.52;100717.71;1753745;81;21657;-68
2021/09/13 04:15:38;;;;;;;29.35;12.30;;;;;;;14.70;73.18;100715.69;1756940;80;21334;-67
2021/09/13 04:18:05;;;;;;;38.30;14.07;;;;;;;14.78;72.87;100717.25;1757805;81;20948;-73
2021/09/13 04:20:52;;;;;;;38.25;12.33;;;;;;;14.84;72.70;100717.27;1757812;81;20947;-71
2021/09/13 04:23:37;;;;;;;35.17;12.25;;;;;;;14.96;72.07;100718.96;1757900;81;20841;-71
2021/09/13 04:26:06;;;;;;;32.20;12.82;;;;;;;14.96;72.07;100718.96;1745857;81;22111;-72
2021/09/13 04:28:41;;;;;;;36.68;12.60;;;;;;;14.97;72.10;100715.86;1711689;81;21568;-71
2021/09/13 04:31:13;;;;;;;33.92;13.58;;;;;;;14.99;72.08;100721.87;1756795;81;20896;-72
2021/09/13 04:33:58;;;;;;;41.58;15.50;;;;;;;15.03;72.21;100720.65;1757820;80;20869;-71
2021/09/13 04:36:36;;;;;;;41.37;14.25;;;;;;;15.12;72.04;100723.92;1752589;80;21393;-71
2021/09/13 04:39:19;;;;;;;38.08;16.00;;;;;;;15.18;71.93;100715.50;1754846;81;21544;-70
2021/09/13 04:41:55;;;;;;;36.33;13.72;;;;;;;15.28;71.85;100719.12;1753660;81;20935;-71
2021/09/13 04:44:40;;;;;;;72.82;24.90;;;;;;;15.44;71.99;100717.91;1757798;80;21003;-72
2021/09/13 04:47:21;;;;;;;63.48;16.52;;;;;;;15.62;71.89;100719.58;1755614;81;21046;-72
2021/09/13 04:50:02;;;;;;;53.45;15.65;;;;;;;15.84;71.64;100712.95;1661817;85;20934;-71
2021/09/13 04:52:48;;;;;;;55.43;17.57;;;;;;;16.15;71.30;100711.79;1661822;85;21207;-72
2021/09/13 04:55:16;;;;;;;40.28;15.83;;;;;;;16.64;70.65;100705.06;1638435;86;20899;-71
2021/09/13 04:57:44;;;;;;;44.50;18.25;;;;;;;17.23;69.50;100708.92;1661949;85;20965;-71
2021/09/13 05:00:14;;;;;;;48.63;18.32;;;;;;;17.86;67.88;100705.22;1638135;86;20974;-72
2021/09/13 05:02:41;;;;;;;33.33;17.45;;;;;;;18.50;66.38;100706.47;1661909;85;21093;-72
2021/09/13 05:05:10;;;;;;;38.25;18.90;;;;;;;19.19;64.38;100703.56;1661781;85;20932;-70
2021/09/13 05:07:37;;;;;;;28.67;16.25;;;;;;;19.79;62.52;100711.13;1661599;85;20922;-71
2021/09/13 05:10:06;;;;;;;47.23;17.35;;;;;;;20.35;60.48;100697.69;1661754;85;20915;-70
2021/09/13 05:12:34;;;;;;;31.65;18.37;;;;;;;20.91;59.01;100699.11;1661836;85;21019;-69
2021/09/13 05:15:03;;;;;;;35.00;16.97;;;;;;;21.46;57.21;100693.91;1638379;86;20963;-69
2021/09/13 05:17:31;;;;;;;45.85;17.17;;;;;;;21.97;55.64;100705.39;1661552;85;21188;-68
2021/09/13 05:19:59;;;;;;;49.00;20.00;;;;;;;22.44;54.28;100691.42;1661387;85;20978;-69
2021/09/13 05:22:28;;;;;;;43.95;19.35;;;;;;;22.88;52.87;100696.38;1651982;85;20959;-70
2021/09/13 05:24:55;;;;;;;59.27;19.57;;;;;;;23.27;51.70;100693.45;1649831;82;21001;-68
2021/09/13 05:27:22;;;;;;;51.98;18.30;;;;;;;23.68;50.65;100687.41;1740998;82;20893;-70
2021/09/13 05:29:49;;;;;;;61.33;20.43;;;;;;;24.02;49.37;100691.56;1741146;81;21712;-68
2021/09/13 05:32:18;;;;;;;38.53;16.87;;;;;;;24.39;48.49;100692.63;1741019;82;20908;-69
2021/09/13 05:34:45;;;;;;;51.00;19.37;;;;;;;24.79;47.49;100687.93;1740972;82;20964;-69
2021/09/13 05:37:12;;;;;;;45.12;17.20;;;;;;;25.20;46.67;100692.34;1740855;82;20972;-70
2021/09/13 05:39:39;;;;;;;41.45;17.73;;;;;;;25.56;46.11;100692.89;1741009;82;21410;-69
2021/09/13 05:42:07;;;;;;;51.68;17.65;;;;;;;25.93;45.33;100694.27;1739287;81;21171;-69
2021/09/13 05:44:36;;;;;;;38.48;16.97;;;;;;;26.30;44.57;100698.53;1740549;82;21015;-68
2021/09/13 05:47:03;;;;;;;37.03;16.52;;;;;;;26.61;44.11;100696.88;1741198;82;20897;-68
2021/09/13 05:49:30;;;;;;;32.95;14.70;;;;;;;26.87;43.61;100696.73;1741039;81;20956;-68
2021/09/13 05:51:58;;;;;;;37.15;14.73;;;;;;;27.15;43.14;100698.03;1740851;81;21397;-65
2021/09/13 05:54:26;;;;;;;27.27;12.07;;;;;;;27.46;42.43;100698.93;1740268;82;21183;-65
2021/09/13 05:56:54;;;;;;;22.45;11.95;;;;;;;27.74;40.77;100696.62;1741385;82;21530;-65
2021/09/13 05:59:23;;;;;;;25.30;10.93;;;;;;;27.97;39.79;100703.55;1741155;81;20933;-65
2021/09/13 06:01:52;;;;;;;25.57;12.43;;;;;;;28.02;39.81;100699.74;1740504;81;20944;-64
2021/09/13 06:04:19;;;;;;;21.97;12.53;;;;;;;28.03;39.48;100700.86;1741331;81;21555;-66
2021/09/13 06:06:47;;;;;;;31.00;13.93;;;;;;;28.06;40.70;100700.47;1741250;82;21878;-66
2021/09/13 06:09:15;;;;;;;18.42;9.35;;;;;;;28.27;40.89;100703.48;1741330;81;21411;-65
2021/09/13 06:11:42;;;;;;;20.75;9.73;;;;;;;28.64;39.53;100699.07;1741198;82;20928;-66
2021/09/13 06:14:11;;;;;;;18.55;11.28;;;;;;;29.07;37.85;100693.98;1741216;82;20967;-66
2021/09/13 06:16:39;;;;;;;20.88;8.95;;;;;;;29.52;38.38;100701.32;1741070;82;20917;-66
2021/09/13 06:19:09;;;;;;;25.02;8.38;;;;;;;29.98;35.87;100704.86;1741265;81;21914;-66
2021/09/13 06:21:37;;;;;;;23.38;8.65;;;;;;;30.47;35.21;100701.91;1740319;81;20913;-66
2021/09/13 06:24:07;;;;;;;20.00;7.17;;;;;;;30.98;34.82;100698.10;1736245;81;20957;-67
2021/09/13 06:26:35;;;;;;;20.75;8.48;;;;;;;31.40;33.09;100702.30;1735944;81;20936;-66
2021/09/13 06:29:04;;;;;;;19.98;9.33;;;;;;;31.75;33.13;100701.64;1736129;82;20924;-66
2021/09/13 06:31:32;;;;;;;15.48;7.50;;;;;;;32.06;31.22;100695.69;1715867;82;20921;-66
2021/09/13 06:34:00;;;;;;;17.70;7.40;;;;;;;32.35;30.25;100702.95;1736078;82;20913;-65
2021/09/13 06:36:27;;;;;;;17.65;8.25;;;;;;;32.65;29.33;100693.89;1737544;82;20873;-66
2021/09/13 06:38:55;;;;;;;24.72;8.58;;;;;;;32.94;29.22;100696.70;1738565;82;20968;-65
2021/09/13 06:41:22;;;;;;;18.95;9.00;;;;;;;33.22;28.57;100694.63;1736988;81;20984;-66
2021/09/13 06:43:51;;;;;;;18.60;9.13;;;;;;;33.47;28.24;100693.48;1736102;82;21207;-65
2021/09/13 06:46:25;;;;;;;18.40;9.28;;;;;;;33.64;27.63;100695.75;1735825;82;20925;-65
2021/09/13 06:48:51;;;;;;;24.97;9.07;;;;;;;33.85;27.18;100694.21;1736642;81;21020;-67
2021/09/13 06:51:18;;;;;;;20.05;8.40;;;;;;;34.03;27.55;100696.70;1736488;82;20988;-65
2021/09/13 06:53:45;;;;;;;22.75;9.93;;;;;;;34.15;27.76;100695.31;1736208;82;21458;-66
2021/09/13 06:56:12;;;;;;;16.37;8.50;;;;;;;34.21;27.14;100697.02;1736182;81;21179;-68
2021/09/13 06:58:40;;;;;;;17.75;8.70;;;;;;;34.25;27.82;100696.82;1736142;82;20913;-67
2021/09/13 07:01:06;;;;;;;24.00;9.50;;;;;;;34.33;28.31;100694.23;1736057;81;20932;-67
2021/09/13 07:03:34;;;;;;;23.65;9.70;;;;;;;34.43;28.25;100697.10;1736382;81;21374;-67
2021/09/13 07:06:03;;;;;;;25.95;10.45;;;;;;;34.61;27.76;100689.19;1736228;81;20940;-68
2021/09/13 07:08:30;;;;;;;14.70;7.95;;;;;;;34.79;27.59;100694.92;1736130;82;21042;-68
2021/09/13 07:10:58;;;;;;;14.63;7.03;;;;;;;34.90;25.82;100691.80;1736339;82;20857;-68
2021/09/13 07:13:26;;;;;;;14.07;6.37;;;;;;;35.00;25.31;100691.13;1736090;82;21028;-67
2021/09/13 07:15:53;;;;;;;17.98;6.20;;;;;;;35.08;24.96;100694.24;1736130;82;20948;-69
2021/09/13 07:18:22;;;;;;;15.98;5.03;;;;;;;35.17;24.38;100690.53;1736083;82;21016;-66
2021/09/13 07:20:49;;;;;;;14.98;6.67;;;;;;;35.27;23.78;100687.94;1736313;82;21098;-67
2021/09/13 07:23:16;;;;;;;15.75;7.60;;;;;;;35.30;24.31;100690.70;1743430;80;20880;-67
2021/09/13 07:25:42;;;;;;;21.33;8.53;;;;;;;35.32;24.95;100689.09;1750152;82;21433;-67
2021/09/13 07:28:09;;;;;;;24.00;9.83;;;;;;;35.36;25.66;100694.32;1750131;82;20940;-68
2021/09/13 07:30:36;;;;;;;27.00;10.85;;;;;;;35.32;26.62;100689.91;1750186;82;21401;-68
2021/09/13 07:33:03;;;;;;;23.87;10.18;;;;;;;35.37;26.88;100692.68;1750471;82;21104;-67
2021/09/13 07:35:30;;;;;;;27.10;9.85;;;;;;;35.45;26.84;100694.96;1750073;82;20924;-67
2021/09/13 07:37:57;;;;;;;27.10;9.63;;;;;;;35.43;26.57;100686.75;1750137;82;20948;-67
2021/09/13 07:40:24;;;;;;;23.05;7.70;;;;;;;35.25;26.35;100692.01;1750083;82;21057;-67
2021/09/13 07:42:51;;;;;;;23.57;9.18;;;;;;;35.07;26.00;100689.03;1750362;82;20935;-68
2021/09/13 07:45:21;;;;;;;24.55;7.03;;;;;;;34.85;26.07;100692.56;1750142;80;21168;-67
2021/09/13 07:47:48;;;;;;;13.05;4.78;;;;;;;34.82;26.28;100691.72;1750086;82;20908;-67
2021/09/13 07:50:17;;;;;;;13.45;3.83;;;;;;;34.91;24.43;100685.80;1750084;82;20896;-66
2021/09/13 07:52:44;;;;;;;19.17;5.58;;;;;;;35.02;23.39;100686.25;1750044;81;20888;-68
2021/09/13 07:55:11;;;;;;;21.30;4.80;;;;;;;35.19;24.28;100684.84;1750239;82;20923;-67
2021/09/13 07:57:38;;;;;;;14.00;4.12;;;;;;;35.38;24.62;100685.34;1750019;82;21552;-67
2021/09/13 08:00:07;;;;;;;18.87;4.87;;;;;;;35.60;23.80;100683.40;1750051;80;20967;-67
2021/09/13 08:02:36;;;;;;;9.85;3.62;;;;;;;35.74;22.34;100683.83;1749504;82;20911;-67
2021/09/13 08:05:03;;;;;;;10.68;3.40;;;;;;;35.76;21.80;100684.95;1750135;82;21417;-67
2021/09/13 08:07:30;;;;;;;15.95;3.95;;;;;;;35.64;21.71;100679.11;1749987;82;21084;-67
2021/09/13 08:09:57;;;;;;;11.12;4.08;;;;;;;35.58;22.59;100680.10;1750204;82;21849;-67
2021/09/13 08:12:25;;;;;;;9.58;3.17;;;;;;;35.72;22.82;100683.27;1750307;82;20876;-68
2021/09/13 08:14:52;;;;;;;10.10;3.50;;;;;;;35.85;22.04;100678.75;1750002;82;20924;-66
2021/09/13 08:17:19;;;;;;;9.83;3.47;;;;;;;35.96;22.60;100674.75;1750004;82;21505;-68
2021/09/13 08:19:46;;;;;;;13.93;3.08;;;;;;;36.09;21.92;100672.95;1750089;82;21327;-67
2021/09/13 08:22:15;;;;;;;14.53;2.83;;;;;;;36.28;21.45;100667.37;1750016;80;20935;-69
2021/09/13 08:24:43;;;;;;;10.75;3.20;;;;;;;36.47;20.83;100671.88;1735897;81;21082;-70
2021/09/13 08:27:14;;;;;;;11.90;3.50;;;;;;;36.43;21.09;100663.93;1735599;81;21431;-68
2021/09/13 08:29:41;;;;;;;11.63;4.10;;;;;;;36.52;21.24;100669.72;1736290;82;20964;-68
2021/09/13 08:32:09;;;;;;;11.28;3.50;;;;;;;36.67;21.49;100669.03;1736011;81;20842;-69
2021/09/13 08:34:36;;;;;;;13.50;3.20;;;;;;;36.79;21.51;100668.25;1735976;82;21502;-69
2021/09/13 08:37:03;;;;;;;12.78;3.75;;;;;;;36.81;20.32;100668.81;1736179;82;20928;-70
2021/09/13 08:39:30;;;;;;;11.53;3.22;;;;;;;36.91;20.55;100672.16;1736072;81;21375;-69
2021/09/13 08:41:57;;;;;;;14.83;3.30;;;;;;;37.06;19.90;100653.05;1736271;81;20924;-69
2021/09/13 08:44:24;;;;;;;11.45;3.10;;;;;;;37.15;20.35;100659.41;1736044;82;20928;-70
2021/09/13 08:46:56;;;;;;;9.03;2.92;;;;;;;37.21;20.39;100663.81;1736292;82;21346;-67
2021/09/13 08:51:52;;;;;;;7.30;2.72;;;;;;;37.28;20.52;100654.80;1736302;82;20901;-68
2021/09/13 08:54:19;;;;;;;11.63;3.25;;;;;;;37.38;19.91;100654.84;1736067;82;20873;-67
2021/09/13 08:56:52;;;;;;;9.03;2.58;;;;;;;37.47;19.88;100648.29;1736239;81;20928;-68
2021/09/13 08:59:16;;;;;;;10.18;2.80;;;;;;;37.49;19.08;100649.66;1735449;82;21178;-69
2021/09/13 09:01:46;;;;;;;7.70;2.22;;;;;;;37.46;18.95;100650.73;1736385;81;20968;-69
2021/09/13 09:04:13;;;;;;;7.85;2.33;;;;;;;37.38;19.67;100642.52;1739648;81;21442;-68
2021/09/13 09:06:42;;;;;;;5.20;2.52;;;;;;;37.36;19.26;100650.18;1736233;82;20928;-68
2021/09/13 09:09:11;;;;;;;7.22;2.50;;;;;;;37.31;19.87;100645.52;1735997;81;20885;-68
2021/09/13 09:12:08;;;;;;;6.47;2.35;;;;;;;37.30;19.70;100642.48;1736413;81;21793;-66
2021/09/13 09:14:43;;;;;;;8.15;2.52;;;;;;;37.22;18.96;100644.41;1735913;81;20932;-67
2021/09/13 09:17:25;;;;;;;9.93;2.52;;;;;;;36.90;19.12;100651.36;1736388;82;21303;-67
2021/09/13 09:20:10;;;;;;;6.63;3.00;;;;;;;36.75;19.62;100646.64;1736197;82;20988;-67
2021/09/13 09:22:41;;;;;;;9.20;3.83;;;;;;;36.74;20.13;100645.00;1735911;81;21418;-71
2021/09/13 09:25:11;;;;;;;7.67;2.67;;;;;;;36.72;19.81;100641.72;1749871;82;21145;-69
2021/09/13 09:27:59;;;;;;;9.30;2.67;;;;;;;36.71;20.05;100637.35;1722461;82;20916;-68
2021/09/13 09:30:48;;;;;;;9.53;3.42;;;;;;;36.75;20.53;100640.36;1748737;82;21037;-68
2021/09/13 09:33:21;;;;;;;7.97;3.55;;;;;;;36.84;20.12;100640.97;1743713;80;20964;-68
2021/09/13 09:38:39;;;;;;;12.33;3.85;;;;;;;36.97;19.58;100626.50;1798687;79;22565;-69
2021/09/13 09:41:12;;;;;;;14.18;3.50;;;;;;;36.91;20.01;100641.53;1758321;81;20912;-69
2021/09/13 09:44:00;;;;;;;11.90;8.38;;;;;;;37.03;19.98;100630.36;1758165;80;21181;-68
2021/09/13 09:46:43;;;;;;;5.22;2.98;;;;;;;37.07;19.65;100628.73;1722542;83;20935;-67
2021/09/13 09:49:12;;;;;;;8.98;3.25;;;;;;;37.19;20.09;100623.59;1725187;82;20891;-70
2021/09/13 09:51:43;;;;;;;12.03;4.30;;;;;;;37.27;19.66;100627.19;1724760;83;20927;-69
2021/09/13 09:54:17;;;;;;;8.25;3.58;;;;;;;37.37;19.63;100628.55;1724910;81;21132;-67
2021/09/13 09:56:48;;;;;;;9.28;3.90;;;;;;;37.44;18.84;100629.13;1724826;83;21465;-68
2021/09/13 09:59:17;;;;;;;5.95;3.60;;;;;;;37.33;18.92;100624.71;1724332;83;20978;-69
2021/09/13 10:01:48;;;;;;;10.00;3.37;;;;;;;37.33;19.90;100624.19;1724732;83;20891;-69
2021/09/13 10:04:24;;;;;;;5.47;2.95;;;;;;;37.40;19.77;100618.45;1725417;82;20942;-68
2021/09/13 10:06:58;;;;;;;10.95;2.85;;;;;;;37.43;19.43;100622.56;1726380;83;20934;-68
2021/09/13 10:09:28;;;;;;;6.75;2.70;;;;;;;37.43;19.04;100617.08;1726037;83;21800;-67
2021/09/13 10:11:57;;;;;;;7.83;2.92;;;;;;;37.40;19.40;100613.50;1724763;83;21447;-69
2021/09/13 10:14:27;;;;;;;16.07;3.35;;;;;;;37.46;19.36;100615.97;1724959;83;21365;-68
2021/09/13 10:16:56;;;;;;;7.93;3.60;;;;;;;37.26;19.25;100610.48;1724848;83;20931;-69
2021/09/13 10:19:24;;;;;;;6.78;3.58;;;;;;;37.03;19.99;100604.38;1724962;82;20907;-67
2021/09/13 10:21:52;;;;;;;8.63;2.95;;;;;;;36.80;19.88;100606.20;1724880;83;21106;-69
2021/09/13 10:24:25;;;;;;;9.18;3.30;;;;;;;36.63;20.23;100606.42;1724616;83;20895;-68
2021/09/13 10:26:55;;;;;;;8.45;4.03;;;;;;;36.50;20.58;100607.14;1724993;83;21018;-67
2021/09/13 10:29:26;;;;;;;14.68;5.00;;;;;;;36.42;20.72;100606.30;1724317;83;20951;-67
2021/09/13 10:31:57;;;;;;;10.20;4.28;;;;;;;36.36;20.47;100602.44;1724696;83;20994;-67
2021/09/13 10:34:33;;;;;;;8.78;3.80;;;;;;;36.27;20.46;100597.46;1724745;83;20916;-67
2021/09/13 10:37:08;;;;;;;5.90;3.77;;;;;;;36.17;20.63;100596.57;1719311;81;20892;-68
2021/09/13 10:40:11;;;;;;;6.90;3.35;;;;;;;36.12;21.02;100593.81;1709364;82;20922;-68
2021/09/13 10:42:50;;;;;;;8.70;3.27;;;;;;;36.19;20.86;100593.03;1709559;83;20860;-67
2021/09/13 10:45:38;;;;;;;4.33;3.05;;;;;;;36.17;20.68;100593.84;1704404;83;20904;-69
2021/09/13 10:48:18;;;;;;;5.45;3.30;;;;;;;36.14;20.13;100593.02;1709518;82;21870;-68
2021/09/13 10:50:51;;;;;;;4.92;2.80;;;;;;;36.12;20.07;100593.27;1708696;84;20959;-68
2021/09/13 10:53:27;;;;;;;5.17;2.83;;;;;;;36.18;19.78;100590.86;1708877;84;20900;-67
2021/09/13 10:56:23;;;;;;;8.58;3.80;;;;;;;36.31;19.40;100589.02;1744516;81;20952;-69
2021/09/13 10:58:56;;;;;;;9.58;4.70;;;;;;;36.42;20.17;100591.27;1744802;82;21397;-69
2021/09/13 11:01:27;;;;;;;5.12;3.35;;;;;;;36.41;20.60;100584.14;1744374;82;21972;-66
2021/09/13 11:04:06;;;;;;;7.10;3.12;;;;;;;36.44;20.26;100586.89;1744550;81;21015;-67
2021/09/13 11:06:46;;;;;;;9.25;5.95;;;;;;;36.37;20.34;100578.93;1708736;82;20968;-67
2021/09/13 11:09:18;;;;;;;8.68;4.22;;;;;;;36.30;19.62;100587.36;1708875;82;20943;-68
2021/09/13 11:11:53;;;;;;;10.20;5.03;;;;;;;36.23;19.25;100581.87;1708873;84;21516;-67
2021/09/13 11:14:21;;;;;;;8.08;3.67;;;;;;;36.10;19.56;100576.29;1709138;82;21133;-67
2021/09/13 11:16:51;;;;;;;5.25;2.95;;;;;;;35.93;20.25;100575.63;1708790;84;20947;-67
2021/09/13 11:19:20;;;;;;;11.53;3.98;;;;;;;35.78;20.31;100569.53;1708801;84;20936;-65
2021/09/13 11:21:51;;;;;;;4.90;2.95;;;;;;;35.64;21.08;100577.31;1708042;83;20947;-62
2021/09/13 11:24:33;;;;;;;7.10;3.85;;;;;;;35.38;21.24;100566.16;1708220;83;20919;-63
2021/09/13 11:27:07;;;;;;;6.37;4.03;;;;;;;35.17;21.36;100569.75;1708034;84;21135;-63
2021/09/13 11:29:46;;;;;;;9.73;4.20;;;;;;;34.85;22.65;100554.94;1707257;82;21531;-63
2021/09/13 11:32:15;;;;;;;11.12;4.50;;;;;;;34.40;22.16;100562.81;1706960;82;20974;-64
2021/09/13 11:34:50;;;;;;;6.78;3.90;;;;;;;33.81;22.02;100562.45;1708250;84;20939;-64
2021/09/13 11:37:23;;;;;;;11.70;3.62;;;;;;;33.41;23.01;100562.02;1709375;83;20861;-63